Time;durP1;ratioP1;P1;durP2;ratioP2;P2;SDS_P1;SDS_P2;PMS_P1;PMS_P2;Temp;Humidity;BMP_temperature;BMP_pressure;BME280_temperature;BME280_humidity;BME280_pressure;Samples;Min_cycle;Max_cycle;Signal;HPM_P1;HPM_P2
2022/04/20 00:00:47;;;;;;;0.80;0.57;;;11.40;55.60;;;;;;5010389;28;20038;-71
2022/04/20 00:03:13;;;;;;;0.57;0.50;;;11.30;55.70;;;;;;4994932;28;20066;-71
2022/04/20 00:05:39;;;;;;;0.60;0.40;;;11.30;55.80;;;;;;5010143;28;20081;-71
2022/04/20 00:08:05;;;;;;;0.50;0.30;;;11.30;55.80;;;;;;4994766;28;21314;-71
2022/04/20 00:10:32;;;;;;;0.55;0.40;;;11.30;55.90;;;;;;4994000;28;20148;-71
2022/04/20 00:12:58;;;;;;;0.43;0.43;;;11.20;56.00;;;;;;4994549;28;20053;-71
2022/04/20 00:15:24;;;;;;;0.50;0.40;;;11.10;55.90;;;;;;4994130;28;20042;-71
2022/04/20 00:17:50;;;;;;;0.45;0.45;;;11.10;56.00;;;;;;4994706;28;20093;-71
2022/04/20 00:20:17;;;;;;;0.50;0.50;;;11.10;56.10;;;;;;4995168;28;20117;-71
2022/04/20 00:22:43;;;;;;;0.30;0.30;;;11.10;56.10;;;;;;4992674;28;20114;-71
2022/04/20 00:25:09;;;;;;;0.63;0.40;;;11.00;56.20;;;;;;4995260;28;20377;-71
2022/04/20 00:27:36;;;;;;;0.30;0.30;;;11.00;56.20;;;;;;4994432;28;20058;-71
2022/04/20 00:30:04;;;;;;;0.35;0.35;;;10.90;56.30;;;;;;4994683;28;20093;-72
2022/04/20 00:32:30;;;;;;;0.50;0.40;;;11.00;56.40;;;;;;4994931;28;20042;-72
2022/04/20 00:34:56;;;;;;;0.65;0.40;;;10.90;56.40;;;;;;4994455;28;20074;-72
2022/04/20 00:37:22;;;;;;;0.45;0.45;;;10.90;56.50;;;;;;4994277;28;20089;-71
2022/04/20 00:39:48;;;;;;;1.48;0.60;;;10.80;56.50;;;;;;4993039;28;20038;-71
2022/04/20 00:42:14;;;;;;;0.40;0.40;;;10.70;56.50;;;;;;4992357;28;20058;-71
2022/04/20 00:44:40;;;;;;;0.40;0.40;;;10.80;56.50;;;;;;4992739;28;20076;-71
2022/04/20 00:47:09;;;;;;;0.98;0.50;;;10.70;56.60;;;;;;4994328;28;20051;-71
2022/04/20 00:49:36;;;;;;;0.40;0.40;;;10.70;56.70;;;;;;4994124;28;20046;-71
2022/04/20 00:52:03;;;;;;;0.65;0.45;;;10.70;56.70;;;;;;4994006;28;20042;-72
2022/04/20 00:54:30;;;;;;;0.60;0.57;;;10.70;56.80;;;;;;5009042;28;20046;-71
2022/04/20 00:56:56;;;;;;;0.32;0.32;;;10.70;56.80;;;;;;4993764;28;20133;-70
2022/04/20 00:59:25;;;;;;;0.47;0.32;;;10.60;56.70;;;;;;4993417;28;20085;-71
2022/04/20 01:01:51;;;;;;;0.40;0.30;;;10.60;56.80;;;;;;5008789;28;20046;-71
2022/04/20 01:04:17;;;;;;;0.63;0.40;;;10.50;56.80;;;;;;4992293;28;20524;-71
2022/04/20 01:06:44;;;;;;;0.52;0.47;;;10.50;56.80;;;;;;4990537;28;20042;-71
2022/04/20 01:09:10;;;;;;;0.95;0.50;;;10.50;56.80;;;;;;4994019;28;20137;-71
2022/04/20 01:11:36;;;;;;;0.50;0.40;;;10.60;56.80;;;;;;4993774;28;20047;-71
2022/04/20 01:14:04;;;;;;;0.63;0.50;;;10.50;56.80;;;;;;4993632;28;20125;-71
2022/04/20 01:16:29;;;;;;;0.80;0.40;;;10.50;56.80;;;;;;5008793;28;20044;-71
2022/04/20 01:18:56;;;;;;;0.40;0.40;;;10.50;56.80;;;;;;4992455;28;20038;-71
2022/04/20 01:21:23;;;;;;;0.30;0.30;;;10.50;56.80;;;;;;4993853;28;20449;-70
2022/04/20 01:23:49;;;;;;;0.30;0.30;;;10.40;56.70;;;;;;4993946;28;20041;-71
2022/04/20 01:26:15;;;;;;;0.30;0.30;;;10.30;56.60;;;;;;4993384;28;20439;-70
2022/04/20 01:28:44;;;;;;;0.30;0.30;;;10.50;56.90;;;;;;4993433;28;20125;-70
2022/04/20 01:31:14;;;;;;;0.63;0.43;;;10.30;56.80;;;;;;4993504;28;20057;-70
2022/04/20 01:33:41;;;;;;;0.60;0.50;;;10.40;56.90;;;;;;4993945;28;20129;-70
2022/04/20 01:36:08;;;;;;;0.50;0.50;;;10.30;56.90;;;;;;4994122;28;20042;-70
2022/04/20 01:38:34;;;;;;;0.73;0.40;;;10.30;56.90;;;;;;5008611;28;20049;-70
2022/04/20 01:40:59;;;;;;;0.52;0.32;;;10.30;56.90;;;;;;4993649;28;20078;-70
2022/04/20 01:43:25;;;;;;;0.55;0.40;;;10.20;57.00;;;;;;4993830;28;20425;-71
2022/04/20 01:45:51;;;;;;;0.30;0.30;;;10.30;57.10;;;;;;4993292;28;20396;-70
2022/04/20 01:48:17;;;;;;;0.32;0.32;;;10.20;57.00;;;;;;4993631;28;20117;-70
2022/04/20 01:53:21;;;;;;;0.30;0.30;;;10.20;57.00;;;;;;4993044;28;20054;-71
2022/04/20 01:55:47;;;;;;;0.45;0.38;;;10.20;57.10;;;;;;5007986;28;20034;-71
2022/04/20 01:58:13;;;;;;;0.40;0.40;;;10.20;57.00;;;;;;4993189;28;20392;-70
2022/04/20 02:00:38;;;;;;;0.40;0.40;;;10.20;57.10;;;;;;4993209;28;20055;-70
2022/04/20 02:03:04;;;;;;;0.70;0.50;;;10.10;57.10;;;;;;4993217;28;20049;-70
2022/04/20 02:05:30;;;;;;;0.30;0.30;;;10.10;57.20;;;;;;4993336;28;20038;-70
2022/04/20 02:07:57;;;;;;;0.30;0.30;;;10.20;57.20;;;;;;4993351;28;20045;-70
2022/04/20 02:10:23;;;;;;;0.50;0.47;;;10.20;57.30;;;;;;4993446;28;20046;-70
2022/04/20 02:12:48;;;;;;;0.47;0.30;;;10.00;57.20;;;;;;5008038;28;20042;-70
2022/04/20 02:15:14;;;;;;;1.40;0.50;;;10.00;57.20;;;;;;4992965;28;20404;-70
2022/04/20 02:17:40;;;;;;;0.30;0.30;;;9.90;57.20;;;;;;4991634;28;20108;-70
2022/04/20 02:20:06;;;;;;;0.30;0.30;;;9.90;57.30;;;;;;4993405;28;20049;-70
2022/04/20 02:22:32;;;;;;;0.52;0.40;;;9.90;57.30;;;;;;5008302;28;20042;-70
2022/04/20 02:24:59;;;;;;;0.30;0.30;;;9.90;57.40;;;;;;4992758;28;20092;-70
2022/04/20 02:27:26;;;;;;;0.50;0.50;;;9.80;57.40;;;;;;4990900;28;20042;-70
2022/04/20 02:29:52;;;;;;;0.30;0.30;;;9.80;57.30;;;;;;5007588;28;20401;-71
2022/04/20 02:32:18;;;;;;;0.80;0.50;;;9.70;57.30;;;;;;4992615;28;20046;-70
2022/04/20 02:34:44;;;;;;;0.22;0.22;;;9.80;57.30;;;;;;4992679;28;20494;-70
2022/04/20 02:37:10;;;;;;;0.52;0.40;;;9.80;57.30;;;;;;4990802;28;20042;-71
2022/04/20 02:39:37;;;;;;;0.47;0.40;;;9.80;57.30;;;;;;4992794;28;20042;-71
2022/04/20 02:42:05;;;;;;;0.55;0.50;;;9.80;57.30;;;;;;4992340;28;20037;-70
2022/04/20 02:44:31;;;;;;;1.02;0.40;;;9.80;57.30;;;;;;4992435;28;20046;-70
2022/04/20 02:46:57;;;;;;;0.30;0.30;;;9.80;57.30;;;;;;4992422;28;20038;-70
2022/04/20 02:49:23;;;;;;;0.40;0.32;;;9.70;57.20;;;;;;4992429;28;20031;-71
2022/04/20 02:51:49;;;;;;;0.55;0.30;;;9.80;57.20;;;;;;4992421;28;20069;-70
2022/04/20 02:54:15;;;;;;;0.90;0.52;;;9.80;57.20;;;;;;4992402;28;20049;-70
2022/04/20 02:56:41;;;;;;;1.65;0.40;;;9.70;57.20;;;;;;4992207;28;20081;-70
2022/04/20 02:59:07;;;;;;;0.45;0.45;;;9.70;57.20;;;;;;4992318;28;20070;-70
2022/04/20 03:01:33;;;;;;;0.40;0.40;;;9.70;57.20;;;;;;4992718;28;20456;-70
2022/04/20 03:03:59;;;;;;;0.55;0.32;;;9.70;57.30;;;;;;4992184;28;20510;-71
2022/04/20 03:06:27;;;;;;;0.30;0.25;;;9.60;57.20;;;;;;4992720;28;20093;-71
2022/04/20 03:08:53;;;;;;;0.40;0.40;;;9.60;57.30;;;;;;4992224;28;20030;-70
2022/04/20 03:11:19;;;;;;;0.57;0.43;;;9.60;57.30;;;;;;4992649;28;20166;-73
2022/04/20 03:13:45;;;;;;;0.75;0.50;;;9.60;57.50;;;;;;4992648;28;20038;-70
2022/04/20 03:16:11;;;;;;;0.30;0.30;;;9.60;57.50;;;;;;4992351;28;20042;-72
2022/04/20 03:18:37;;;;;;;0.20;0.20;;;9.50;57.50;;;;;;4992179;28;20046;-70
2022/04/20 03:21:03;;;;;;;0.47;0.30;;;9.40;57.50;;;;;;5008265;28;20038;-70
2022/04/20 03:23:30;;;;;;;0.82;0.30;;;9.50;57.60;;;;;;5011237;28;20045;-72
2022/04/20 03:25:56;;;;;;;0.30;0.30;;;9.40;57.60;;;;;;4996067;28;20037;-72
2022/04/20 03:28:22;;;;;;;0.40;0.40;;;9.40;57.60;;;;;;4995982;28;20097;-70
2022/04/20 03:30:48;;;;;;;0.25;0.25;;;9.40;57.60;;;;;;4995743;28;20038;-70
2022/04/20 03:33:14;;;;;;;0.38;0.38;;;9.40;57.60;;;;;;4996056;28;20082;-70
2022/04/20 03:35:40;;;;;;;0.38;0.30;;;9.40;57.70;;;;;;4995219;28;20038;-70
2022/04/20 03:38:08;;;;;;;0.57;0.50;;;9.40;57.70;;;;;;4995245;28;20038;-70
2022/04/20 03:40:34;;;;;;;0.68;0.40;;;9.30;57.70;;;;;;4995529;28;20046;-72
2022/04/20 03:43:00;;;;;;;0.38;0.38;;;9.30;57.80;;;;;;4995195;28;20042;-72
2022/04/20 03:45:26;;;;;;;0.30;0.30;;;9.20;57.70;;;;;;4995829;28;20374;-70
2022/04/20 03:47:52;;;;;;;0.40;0.40;;;9.20;57.80;;;;;;5010372;28;20058;-69
2022/04/20 03:50:18;;;;;;;0.55;0.32;;;9.20;57.80;;;;;;4995350;28;20101;-73
2022/04/20 03:52:44;;;;;;;0.40;0.40;;;9.20;57.80;;;;;;4995108;28;20046;-72
2022/04/20 03:55:10;;;;;;;1.05;0.40;;;9.20;57.90;;;;;;4994888;28;20373;-72
2022/04/20 03:57:35;;;;;;;0.52;0.43;;;9.20;57.90;;;;;;4994974;28;20469;-72
2022/04/20 04:00:04;;;;;;;0.30;0.30;;;9.10;57.90;;;;;;4994948;28;20030;-72
2022/04/20 04:02:30;;;;;;;0.40;0.40;;;9.10;57.90;;;;;;4995634;28;20047;-72
2022/04/20 04:04:56;;;;;;;0.40;0.40;;;9.00;57.90;;;;;;4995599;28;20034;-72
2022/04/20 04:07:23;;;;;;;0.80;0.40;;;9.10;58.60;;;;;;4995001;28;20516;-72
2022/04/20 04:09:48;;;;;;;0.32;0.32;;;9.00;58.00;;;;;;4994967;28;20121;-72
2022/04/20 04:12:14;;;;;;;0.38;0.38;;;9.00;58.10;;;;;;4995303;28;20129;-69
2022/04/20 04:14:41;;;;;;;0.40;0.40;;;8.90;58.10;;;;;;4995060;28;20440;-73
2022/04/20 04:17:08;;;;;;;0.43;0.40;;;8.90;58.10;;;;;;4995093;28;20096;-70
2022/04/20 04:19:35;;;;;;;0.40;0.40;;;8.90;58.20;;;;;;4995052;28;20132;-70
2022/04/20 04:22:02;;;;;;;0.25;0.20;;;8.90;58.20;;;;;;4995051;28;20050;-70
2022/04/20 04:24:35;;;;;;;0.40;0.40;;;8.90;58.20;;;;;;4991465;28;20050;-70
2022/04/20 04:27:03;;;;;;;0.50;0.50;;;8.90;58.30;;;;;;4994558;28;20058;-70
2022/04/20 04:29:29;;;;;;;1.27;0.40;;;8.90;58.30;;;;;;4994636;28;20072;-70
2022/04/20 04:31:55;;;;;;;0.40;0.40;;;8.80;58.20;;;;;;5009149;28;20075;-71
2022/04/20 04:34:21;;;;;;;0.30;0.30;;;8.80;58.30;;;;;;4994136;28;20074;-70
2022/04/20 04:36:47;;;;;;;0.47;0.45;;;8.80;58.30;;;;;;4995144;28;20093;-70
2022/04/20 04:39:17;;;;;;;0.30;0.30;;;8.80;58.30;;;;;;5009463;28;20034;-70
2022/04/20 04:41:46;;;;;;;0.40;0.40;;;8.80;58.40;;;;;;4994809;28;20493;-70
2022/04/20 04:44:12;;;;;;;0.55;0.55;;;8.70;58.30;;;;;;4994975;28;20053;-70
2022/04/20 04:49:20;;;;;;;0.45;0.30;;;8.70;58.40;;;;;;5007036;28;20049;-70
2022/04/20 04:51:46;;;;;;;0.43;0.40;;;8.70;58.40;;;;;;4994306;28;20045;-71
2022/04/20 04:54:11;;;;;;;0.32;0.30;;;8.70;58.40;;;;;;4994206;28;20392;-71
2022/04/20 04:56:37;;;;;;;0.20;0.20;;;8.70;58.40;;;;;;4994850;28;20100;-71
2022/04/20 04:59:03;;;;;;;0.40;0.38;;;8.70;58.50;;;;;;5009288;28;20046;-71
2022/04/20 05:01:28;;;;;;;0.40;0.38;;;8.70;58.50;;;;;;4994159;28;20035;-71
2022/04/20 05:03:54;;;;;;;0.82;0.50;;;8.80;58.50;;;;;;4992210;28;20042;-71
2022/04/20 05:06:20;;;;;;;0.47;0.30;;;8.70;58.40;;;;;;4994450;28;20069;-71
2022/04/20 05:08:46;;;;;;;0.47;0.30;;;8.70;58.40;;;;;;5009139;28;20042;-71
2022/04/20 05:11:12;;;;;;;0.65;0.50;;;8.70;58.40;;;;;;5009340;28;20031;-71
2022/04/20 05:13:38;;;;;;;0.38;0.35;;;8.80;58.50;;;;;;5009289;28;20049;-71
2022/04/20 05:16:04;;;;;;;0.70;0.40;;;8.80;58.40;;;;;;4994774;28;20046;-71
2022/04/20 05:18:30;;;;;;;0.50;0.40;;;8.80;58.40;;;;;;4994402;28;20035;-71
2022/04/20 05:20:56;;;;;;;0.30;0.30;;;8.80;58.40;;;;;;4992968;28;20166;-71
2022/04/20 05:23:21;;;;;;;0.60;0.30;;;8.80;58.40;;;;;;4994498;28;20137;-71
2022/04/20 05:25:48;;;;;;;0.45;0.40;;;8.70;58.30;;;;;;5009128;28;20054;-71
2022/04/20 05:28:14;;;;;;;0.55;0.50;;;8.80;58.30;;;;;;4994257;28;20046;-71
2022/04/20 05:30:40;;;;;;;0.55;0.40;;;8.80;58.30;;;;;;4993773;28;20141;-71
2022/04/20 05:33:06;;;;;;;0.52;0.40;;;8.80;58.30;;;;;;4994025;28;20038;-71
2022/04/20 05:35:32;;;;;;;0.40;0.38;;;8.80;58.30;;;;;;5009543;28;20045;-71
2022/04/20 05:43:23;;;;;;;0.40;0.40;;;8.90;58.20;;;;;;4993143;28;20085;-71
2022/04/20 05:45:50;;;;;;;0.55;0.35;;;8.90;58.20;;;;;;5009451;28;20497;-71
2022/04/20 05:48:16;;;;;;;1.02;0.40;;;8.90;58.10;;;;;;4993678;28;20519;-71
2022/04/20 05:50:43;;;;;;;0.45;0.30;;;8.90;58.20;;;;;;4993769;28;20038;-71
2022/04/20 05:53:09;;;;;;;0.40;0.40;;;9.00;58.10;;;;;;4993413;28;20150;-71
2022/04/20 05:55:35;;;;;;;0.73;0.30;;;8.90;58.10;;;;;;4993298;28;20099;-71
2022/04/20 05:58:01;;;;;;;0.30;0.30;;;9.00;58.10;;;;;;5008637;28;20043;-70
2022/04/20 06:00:27;;;;;;;0.38;0.30;;;9.00;58.00;;;;;;4993989;28;20374;-71
2022/04/20 06:02:54;;;;;;;0.30;0.30;;;9.10;58.00;;;;;;4990034;28;20042;-71
2022/04/20 06:05:20;;;;;;;0.30;0.30;;;9.10;57.90;;;;;;4993806;28;20472;-71
2022/04/20 06:07:47;;;;;;;0.30;0.30;;;9.10;57.90;;;;;;4993471;28;20038;-71
2022/04/20 06:10:13;;;;;;;0.47;0.47;;;9.20;57.90;;;;;;4993302;28;20038;-71
2022/04/20 06:12:39;;;;;;;0.50;0.40;;;9.30;57.90;;;;;;4993246;28;20066;-71
2022/04/20 06:15:06;;;;;;;0.20;0.20;;;9.30;57.80;;;;;;4993280;28;20070;-72
2022/04/20 06:17:32;;;;;;;0.35;0.20;;;9.30;57.70;;;;;;4992939;28;20038;-71
2022/04/20 06:19:58;;;;;;;0.30;0.25;;;9.30;57.70;;;;;;4992905;28;20046;-71
2022/04/20 06:22:24;;;;;;;0.32;0.32;;;9.40;57.70;;;;;;4992730;28;20038;-71
2022/04/20 06:24:50;;;;;;;0.55;0.40;;;9.50;57.60;;;;;;4989636;28;20050;-71
2022/04/20 06:27:16;;;;;;;0.40;0.32;;;9.50;57.60;;;;;;4993199;28;20056;-70
2022/04/20 06:29:42;;;;;;;0.38;0.22;;;9.60;57.60;;;;;;4993183;28;20149;-70
2022/04/20 06:32:08;;;;;;;0.28;0.28;;;9.60;57.50;;;;;;4992920;28;20038;-70
2022/04/20 06:34:34;;;;;;;0.43;0.43;;;9.60;57.50;;;;;;4992782;28;20577;-70
2022/04/20 06:37:00;;;;;;;0.50;0.50;;;9.70;57.40;;;;;;5007900;28;20062;-70
2022/04/20 06:39:27;;;;;;;0.30;0.30;;;9.70;57.40;;;;;;4993078;28;20030;-71
2022/04/20 06:41:53;;;;;;;0.40;0.32;;;9.80;57.40;;;;;;4992619;28;20034;-71
2022/04/20 06:44:19;;;;;;;0.47;0.47;;;9.80;57.40;;;;;;4991556;28;20399;-70
2022/04/20 06:46:45;;;;;;;0.30;0.30;;;9.90;57.40;;;;;;4993131;28;20038;-70
2022/04/20 06:49:11;;;;;;;0.50;0.45;;;9.90;57.40;;;;;;4993462;28;20432;-70
2022/04/20 06:59:50;;;;;;;0.35;0.30;;;10.00;57.30;;;;;;4995958;28;20092;-70
2022/04/20 07:02:16;;;;;;;0.38;0.30;;;10.10;57.20;;;;;;4992670;28;20041;-70
2022/04/20 07:04:42;;;;;;;0.32;0.32;;;10.10;57.20;;;;;;4996659;28;20049;-69
2022/04/20 07:07:09;;;;;;;0.60;0.40;;;10.10;57.20;;;;;;4994725;28;20407;-70
2022/04/20 07:09:34;;;;;;;0.22;0.22;;;10.20;57.30;;;;;;4978441;28;20038;-71
2022/04/20 07:12:00;;;;;;;0.85;0.55;;;10.20;57.30;;;;;;5010962;28;20514;-72
2022/04/20 07:14:26;;;;;;;0.73;0.50;;;10.20;57.30;;;;;;5011270;28;20045;-72
2022/04/20 07:16:52;;;;;;;0.45;0.40;;;10.20;57.30;;;;;;4994601;28;20129;-71
2022/04/20 07:19:18;;;;;;;0.98;0.60;;;10.20;57.30;;;;;;4994464;28;20173;-73
2022/04/20 07:21:43;;;;;;;0.60;0.40;;;10.30;57.30;;;;;;4996159;28;20034;-72
2022/04/20 07:24:09;;;;;;;0.47;0.45;;;10.40;57.40;;;;;;4995609;28;20043;-72
2022/04/20 07:26:35;;;;;;;0.90;0.43;;;10.30;57.30;;;;;;4979265;28;20043;-70
2022/04/20 07:29:01;;;;;;;0.38;0.38;;;10.40;57.40;;;;;;5011749;28;20097;-71
2022/04/20 07:31:29;;;;;;;0.70;0.47;;;10.40;57.40;;;;;;5011046;28;20411;-72
2022/04/20 07:33:55;;;;;;;0.47;0.40;;;10.50;57.30;;;;;;4994289;28;20122;-72
2022/04/20 07:36:21;;;;;;;0.47;0.32;;;10.50;57.20;;;;;;4994409;28;20137;-72
2022/04/20 07:38:48;;;;;;;0.45;0.45;;;10.60;57.20;;;;;;4992234;28;20465;-72
2022/04/20 07:41:15;;;;;;;0.52;0.50;;;10.70;57.20;;;;;;5010405;28;20061;-71
2022/04/20 07:43:41;;;;;;;0.98;0.50;;;10.70;57.10;;;;;;4994314;28;20437;-72
2022/04/20 07:46:07;;;;;;;0.63;0.40;;;10.80;57.10;;;;;;5010475;28;20072;-71
2022/04/20 07:48:33;;;;;;;0.70;0.50;;;10.80;57.00;;;;;;4995319;28;20046;-71
2022/04/20 07:51:00;;;;;;;0.50;0.50;;;10.90;57.00;;;;;;4995983;28;20416;-70
2022/04/20 07:53:27;;;;;;;0.43;0.40;;;11.00;56.90;;;;;;4994177;28;20392;-69
2022/04/20 07:55:53;;;;;;;0.40;0.40;;;11.10;56.80;;;;;;4995295;28;20514;-71
2022/04/20 07:58:20;;;;;;;0.77;0.60;;;11.30;56.80;;;;;;5010496;28;20113;-72
2022/04/20 08:00:46;;;;;;;0.40;0.40;;;11.40;56.70;;;;;;4995722;28;20038;-71
2022/04/20 08:03:15;;;;;;;0.57;0.57;;;11.50;56.60;;;;;;4993904;28;20094;-72
2022/04/20 08:05:42;;;;;;;0.40;0.40;;;11.70;56.40;;;;;;4994919;28;20042;-71
2022/04/20 08:08:10;;;;;;;0.30;0.30;;;11.90;56.30;;;;;;4994271;28;20042;-72
2022/04/20 08:10:37;;;;;;;0.55;0.30;;;12.00;56.10;;;;;;4992524;28;20053;-72
2022/04/20 08:14:09;;;;;;;0.75;0.50;;;12.20;55.90;;;;;;5010328;28;20523;-71
2022/04/20 08:15:49;;;;;;;0.88;0.60;;;12.40;55.60;;;;;;4994380;28;20050;-72
2022/04/20 08:18:15;;;;;;;0.65;0.52;;;12.60;55.40;;;;;;5010018;28;20046;-72
2022/04/20 08:20:41;;;;;;;0.50;0.50;;;12.80;55.20;;;;;;4995074;28;20117;-73
2022/04/20 08:23:07;;;;;;;0.57;0.50;;;13.10;55.10;;;;;;4996103;28;20062;-73
2022/04/20 08:25:33;;;;;;;0.35;0.35;;;13.30;54.90;;;;;;4994934;28;20077;-73
2022/04/20 08:27:58;;;;;;;0.20;0.20;;;13.40;54.70;;;;;;4993688;28;20038;-73
2022/04/20 08:30:24;;;;;;;0.50;0.50;;;13.60;54.60;;;;;;4993745;28;20101;-73
2022/04/20 08:32:50;;;;;;;0.75;0.40;;;13.80;54.50;;;;;;4993697;28;20038;-72
2022/04/20 08:35:15;;;;;;;0.40;0.40;;;14.00;54.40;;;;;;4993444;28;20049;-72
2022/04/20 08:37:42;;;;;;;0.68;0.52;;;14.10;54.40;;;;;;4995316;28;20046;-71
2022/04/20 08:40:08;;;;;;;0.40;0.40;;;14.20;54.30;;;;;;4994838;28;20129;-72
2022/04/20 08:42:35;;;;;;;0.32;0.32;;;14.30;54.20;;;;;;5009599;28;20086;-72
2022/04/20 08:45:04;;;;;;;0.50;0.50;;;14.40;54.30;;;;;;4994692;28;20045;-71
2022/04/20 08:47:35;;;;;;;0.38;0.30;;;14.50;54.30;;;;;;4994420;28;20053;-71
2022/04/20 08:50:01;;;;;;;1.00;0.50;;;14.60;54.20;;;;;;4994954;28;20038;-72
2022/04/20 08:55:12;;;;;;;0.90;0.50;;;14.80;54.30;;;;;;4994480;28;20058;-72
2022/04/20 08:57:38;;;;;;;0.30;0.30;;;14.90;54.20;;;;;;4994345;28;20046;-71
2022/04/20 09:00:08;;;;;;;0.60;0.50;;;15.10;54.20;;;;;;4994393;28;20038;-72
2022/04/20 09:02:34;;;;;;;0.40;0.40;;;15.10;54.00;;;;;;5009432;28;20038;-72
2022/04/20 09:05:00;;;;;;;0.70;0.32;;;15.30;54.00;;;;;;4994431;28;20511;-73
2022/04/20 09:07:26;;;;;;;0.40;0.40;;;15.40;54.00;;;;;;4991326;28;20302;-72
2022/04/20 09:09:51;;;;;;;0.50;0.50;;;15.50;53.90;;;;;;4994644;28;20046;-73
2022/04/20 09:12:20;;;;;;;0.50;0.50;;;15.50;53.90;;;;;;4994246;28;20108;-72
2022/04/20 09:14:48;;;;;;;0.47;0.47;;;15.60;53.90;;;;;;4994020;28;20050;-71
2022/04/20 09:17:17;;;;;;;0.52;0.52;;;15.80;53.90;;;;;;4992261;28;20068;-70
2022/04/20 09:19:45;;;;;;;0.50;0.50;;;16.00;53.90;;;;;;5007994;28;20038;-72
2022/04/20 09:22:22;;;;;;;0.55;0.55;;;15.90;53.70;;;;;;4994338;28;20065;-72
2022/04/20 09:25:08;;;;;;;0.40;0.40;;;16.00;53.60;;;;;;4992648;28;20038;-72
2022/04/20 09:27:35;;;;;;;0.40;0.40;;;16.00;53.50;;;;;;5008819;28;20045;-71
2022/04/20 09:30:04;;;;;;;0.63;0.50;;;16.10;53.70;;;;;;5009122;28;20074;-71
2022/04/20 09:35:52;;;;;;;0.85;0.60;;;16.00;53.80;;;;;;4913379;29;20056;-71
2022/04/20 09:38:22;;;;;;;0.57;0.50;;;16.10;53.80;;;;;;4933743;29;20047;-71
2022/04/20 09:40:49;;;;;;;0.70;0.70;;;16.10;53.90;;;;;;4934066;29;20107;-70
2022/04/20 09:43:16;;;;;;;1.67;0.60;;;16.20;53.90;;;;;;4933831;29;20102;-69
2022/04/20 09:45:43;;;;;;;0.50;0.50;;;16.20;53.70;;;;;;4933640;29;20102;-70
2022/04/20 09:51:20;;;;;;;0.60;0.60;;;16.30;53.60;;;;;;4933038;29;20194;-69
2022/04/20 09:53:50;;;;;;;0.80;0.60;;;16.20;53.60;;;;;;4932668;29;20402;-71
2022/04/20 09:56:21;;;;;;;0.65;0.55;;;16.20;53.60;;;;;;4929302;29;20044;-70
2022/04/20 09:58:58;;;;;;;0.73;0.52;;;16.30;53.60;;;;;;4929417;29;20553;-70
2022/04/20 10:01:29;;;;;;;0.60;0.50;;;16.40;53.50;;;;;;4933052;29;20040;-70
2022/04/20 10:03:55;;;;;;;0.60;0.60;;;16.40;53.60;;;;;;4933255;29;20552;-71
2022/04/20 10:06:22;;;;;;;1.15;0.63;;;16.50;54.10;;;;;;4960546;28;20039;-71
2022/04/20 10:08:49;;;;;;;0.52;0.52;;;16.60;53.30;;;;;;4993015;28;20046;-69
2022/04/20 10:11:16;;;;;;;0.65;0.50;;;16.70;53.20;;;;;;5008515;28;20049;-70
2022/04/20 10:13:42;;;;;;;0.63;0.60;;;16.70;53.10;;;;;;4991811;28;20046;-70
2022/04/20 10:16:11;;;;;;;1.20;0.50;;;16.70;53.00;;;;;;4993166;28;20042;-70
2022/04/20 10:18:39;;;;;;;0.60;0.60;;;16.70;52.90;;;;;;4991707;28;20056;-70
2022/04/20 10:21:07;;;;;;;0.82;0.70;;;16.70;53.00;;;;;;4993108;28;20134;-70
2022/04/20 10:23:34;;;;;;;0.60;0.50;;;16.70;53.00;;;;;;4993621;28;20050;-70
2022/04/20 10:26:06;;;;;;;0.57;0.57;;;16.80;52.90;;;;;;4992896;28;20125;-70
2022/04/20 10:29:15;;;;;;;1.33;0.60;;;16.80;52.80;;;;;;4992466;28;20097;-70
2022/04/20 10:31:51;;;;;;;1.05;0.63;;;16.80;52.60;;;;;;4992346;28;20129;-70
2022/04/20 10:34:19;;;;;;;0.80;0.45;;;16.80;52.70;;;;;;4992897;28;20510;-70
2022/04/20 10:37:02;;;;;;;1.05;0.70;;;16.70;52.80;;;;;;4992634;28;20065;-70
2022/04/20 10:39:33;;;;;;;0.50;0.50;;;16.70;52.70;;;;;;4992726;28;20053;-70
2022/04/20 10:42:17;;;;;;;1.80;0.70;;;16.60;52.80;;;;;;4990968;28;20046;-70
2022/04/20 10:45:05;;;;;;;0.55;0.50;;;16.50;52.70;;;;;;4992793;28;20105;-71
2022/04/20 10:47:38;;;;;;;0.60;0.55;;;16.60;52.70;;;;;;4992969;28;20121;-71
2022/04/20 10:50:15;;;;;;;0.55;0.50;;;16.60;52.70;;;;;;4993216;28;20444;-71
2022/04/20 10:52:48;;;;;;;0.30;0.30;;;16.60;52.60;;;;;;5007751;28;20108;-71
2022/04/20 10:55:15;;;;;;;0.75;0.52;;;16.60;52.60;;;;;;4992711;28;20046;-71
2022/04/20 10:57:43;;;;;;;0.50;0.50;;;16.70;52.40;;;;;;4989331;28;20043;-71
2022/04/20 11:00:44;;;;;;;0.50;0.50;;;16.80;52.20;;;;;;4992550;28;20096;-71
2022/04/20 11:03:12;;;;;;;0.40;0.40;;;16.90;52.00;;;;;;4989197;28;20062;-72
2022/04/20 11:05:53;;;;;;;0.50;0.50;;;16.90;52.00;;;;;;4989188;28;20082;-71
2022/04/20 11:08:20;;;;;;;0.50;0.50;;;16.90;51.90;;;;;;4993041;28;20092;-71
2022/04/20 11:19:19;;;;;;;0.43;0.43;;;17.00;51.50;;;;;;5005008;28;20046;-71
2022/04/20 11:21:53;;;;;;;0.45;0.40;;;17.00;51.60;;;;;;5007469;28;20070;-71
2022/04/20 11:24:30;;;;;;;0.68;0.60;;;17.00;51.50;;;;;;4990834;28;20046;-72
2022/04/20 11:27:08;;;;;;;0.82;0.75;;;17.00;51.40;;;;;;4990039;28;20042;-73
2022/04/20 11:29:34;;;;;;;0.25;0.25;;;17.10;51.40;;;;;;4959033;28;20092;-73
2022/04/20 11:32:03;;;;;;;0.60;0.60;;;17.00;51.20;;;;;;4989861;28;20454;-74
2022/04/20 11:34:34;;;;;;;0.70;0.55;;;17.10;51.00;;;;;;4973468;28;20061;-73
2022/04/20 11:37:02;;;;;;;0.63;0.63;;;17.00;51.00;;;;;;4957660;28;20057;-73
2022/04/20 11:39:29;;;;;;;0.50;0.50;;;17.10;51.00;;;;;;4973907;28;20034;-73
2022/04/20 11:41:57;;;;;;;0.40;0.40;;;17.10;50.90;;;;;;4974801;28;20526;-73
2022/04/20 11:44:44;;;;;;;0.60;0.50;;;17.20;50.90;;;;;;4978172;28;20084;-73
2022/04/20 11:47:16;;;;;;;0.38;0.38;;;17.30;50.80;;;;;;4977331;28;20128;-73
2022/04/20 11:49:44;;;;;;;0.50;0.50;;;17.40;50.60;;;;;;4978494;28;20058;-74
2022/04/20 11:52:14;;;;;;;1.52;0.70;;;17.40;50.40;;;;;;4995479;28;20096;-73
2022/04/20 11:54:41;;;;;;;0.90;0.60;;;17.40;50.30;;;;;;4979350;28;20049;-73
2022/04/20 11:57:09;;;;;;;2.40;0.60;;;17.50;50.40;;;;;;4979486;28;20388;-73
2022/04/20 11:59:44;;;;;;;0.57;0.57;;;17.40;50.40;;;;;;4963152;28;20439;-73
2022/04/20 12:02:13;;;;;;;0.57;0.57;;;17.30;50.30;;;;;;4996648;28;20062;-73
2022/04/20 12:04:42;;;;;;;0.68;0.60;;;17.40;50.40;;;;;;5012312;28;20042;-73
2022/04/20 12:07:08;;;;;;;0.60;0.60;;;17.40;50.30;;;;;;4994724;28;20038;-73
2022/04/20 12:09:38;;;;;;;0.52;0.52;;;17.50;50.30;;;;;;4996041;28;20060;-72
2022/04/20 12:12:07;;;;;;;0.63;0.50;;;17.50;50.10;;;;;;4995758;28;20050;-71
2022/04/20 12:14:37;;;;;;;0.88;0.68;;;17.60;50.00;;;;;;4994967;28;20038;-73
2022/04/20 12:17:06;;;;;;;0.60;0.60;;;17.70;49.90;;;;;;5009792;28;20440;-73
2022/04/20 12:19:33;;;;;;;0.55;0.55;;;17.60;49.90;;;;;;4994827;28;20038;-72
2022/04/20 12:22:09;;;;;;;1.15;0.93;;;17.70;49.90;;;;;;4995089;28;20092;-73
2022/04/20 12:24:37;;;;;;;1.45;0.70;;;17.60;49.70;;;;;;4994949;28;20104;-72
2022/04/20 12:27:04;;;;;;;0.93;0.70;;;17.50;49.90;;;;;;4995481;28;20046;-72
2022/04/20 12:29:33;;;;;;;1.05;0.68;;;17.50;50.00;;;;;;4994487;28;20051;-71
2022/04/20 12:32:00;;;;;;;0.50;0.50;;;17.50;50.20;;;;;;4991264;28;20563;-70
2022/04/20 12:34:28;;;;;;;0.77;0.68;;;17.50;50.10;;;;;;4994508;28;20088;-71
2022/04/20 12:37:03;;;;;;;0.50;0.50;;;17.50;50.00;;;;;;5009727;28;20121;-72
2022/04/20 12:39:35;;;;;;;0.40;0.40;;;17.60;50.00;;;;;;4994569;28;20530;-71
2022/04/20 12:42:07;;;;;;;0.57;0.55;;;17.60;50.00;;;;;;5009662;28;20030;-73
2022/04/20 12:44:39;;;;;;;0.55;0.40;;;17.70;50.00;;;;;;5009536;28;20046;-70
2022/04/20 12:47:32;;;;;;;0.43;0.43;;;17.70;49.90;;;;;;4974956;28;20567;-71
2022/04/20 12:50:14;;;;;;;0.40;0.40;;;17.70;49.90;;;;;;4993292;28;20077;-71
2022/04/20 12:52:49;;;;;;;1.52;0.52;;;17.50;49.90;;;;;;4993064;28;20049;-71
2022/04/20 12:55:15;;;;;;;0.80;0.50;;;17.60;50.00;;;;;;4993881;28;20377;-71
2022/04/20 13:03:30;;;;;;;0.77;0.50;;;17.50;50.20;;;;;;5007978;28;20046;-72
2022/04/20 13:05:55;;;;;;;0.68;0.68;;;17.60;50.20;;;;;;4992831;28;20385;-71
2022/04/20 13:08:24;;;;;;;0.70;0.40;;;17.60;50.10;;;;;;4994162;28;20050;-72
2022/04/20 13:10:51;;;;;;;0.70;0.70;;;17.60;50.00;;;;;;5009677;28;20081;-71
2022/04/20 13:13:22;;;;;;;0.73;0.52;;;17.70;50.00;;;;;;4992591;28;20381;-71
2022/04/20 13:15:50;;;;;;;0.50;0.50;;;17.60;50.00;;;;;;4992848;28;20065;-72
2022/04/20 13:18:16;;;;;;;0.40;0.40;;;17.70;50.00;;;;;;4935791;29;20090;-71
2022/04/20 13:20:45;;;;;;;0.30;0.30;;;17.70;50.00;;;;;;4936397;29;20126;-71
2022/04/20 13:23:11;;;;;;;0.60;0.50;;;17.70;50.00;;;;;;4952823;29;20066;-71
2022/04/20 13:28:22;;;;;;;0.68;0.50;;;17.80;50.10;;;;;;4953226;29;20539;-71
2022/04/20 13:30:49;;;;;;;0.50;0.50;;;17.80;50.00;;;;;;4951076;29;20051;-71
2022/04/20 13:33:15;;;;;;;0.47;0.47;;;17.90;49.90;;;;;;4952989;29;20047;-72
2022/04/20 13:35:47;;;;;;;0.65;0.60;;;17.90;49.80;;;;;;4952930;29;20069;-72
2022/04/20 13:38:13;;;;;;;0.70;0.60;;;17.90;49.80;;;;;;4953119;29;20039;-72